Weather History for Williams, AZ

Change the Weather History Date:

Saturday, October 5, 2013

  Actual Average (KFLG) Record (KFLG)
Temperature  
Mean Temperature 42 °F 50 °F  
Max Temperature 57 °F 66 °F 80 °F (1975)
Min Temperature 26 °F 35 °F 14 °F (1969)
Degree Days  
Heating Degree Days 24 15  
Month to date heating degree days 69  
Since 1 July heating degree days 386  
Cooling Degree Days 0 0  
Month to date cooling degree days 0  
Year to date cooling degree days 117  
Moisture  
Dew Point 14 °F    
Average Humidity 32    
Maximum Humidity 51    
Minimum Humidity 15    
Precipitation  
Precipitation 0.00 in 0.06 in 1.80 in (1940)
Month to date precipitation 0.30  
Year to date precipitation 16.87  
Snow  
Snow 0.00 in 0.00 in 3.60 in (1912)
Month to date snowfall 0.1  
Since 1 July snowfall 0.1  
Snow Depth -    
Sea Level Pressure  
Sea Level Pressure 30.43 in    
Wind  
Wind Speed 10 mph (NE)    
Max Wind Speed 18 mph    
Max Gust Speed 28 mph    
Visibility 10 miles    
Events      
T = Trace of Precipitation, MM = Missing Value Source: NWS Daily Summary

Daily Weather History Graph

Daily Weather History Graph

Search for Another Location

Airport:

Trip Planner

Search our weather history database for the weather conditions in past years. The results will help you decide how hot, cold, wet, or windy it might be!

Date:

Astronomy

Oct. 05, 2013 Rise Set
Actual Time 6:27 AM MST 6:06 PM MST
Civil Twilight 6:01 AM MST 6:31 PM MST
Nautical Twilight 5:32 AM MST 7:01 PM MST
Astronomical Twilight 5:02 AM MST 7:30 PM MST
Moon 7:07 AM MST (10/5) 6:31 PM MST (10/5)
Length of Visible Light 12h 30m
Length of Day
11h 39m
New Moon, 1% of the Moon is Illuminated
Oct 5
New Moon
Oct 11
First Quarter
Oct 18
Full
Oct 26
Last Quarter
Nov 3
New

Hourly Weather History & Observations

Time (MST) Temp. Windchill Dew Point Humidity Pressure Visibility Wind Dir Wind Speed Gust Speed Precip Events Conditions
12:15 AM 37.4 °F 28.9 °F 14.0 °F 38% 30.38 in 10.0 mi NE 13.8 mph - N/A   Clear
12:35 AM 37.4 °F 27.5 °F 14.0 °F 38% 30.38 in 10.0 mi NE 18.4 mph - N/A   Clear
12:55 AM 39.2 °F 31.6 °F 14.0 °F 36% 30.38 in 10.0 mi NE 12.7 mph 27.6 mph N/A   Clear
1:15 AM 37.4 °F 29.8 °F 12.2 °F 36% 30.38 in 10.0 mi ENE 11.5 mph 18.4 mph N/A   Clear
1:35 AM 37.4 °F 29.3 °F 12.2 °F 36% 30.38 in 10.0 mi ENE 12.7 mph - N/A   Clear
1:55 AM 37.4 °F 29.3 °F 12.2 °F 36% 30.39 in 10.0 mi ENE 12.7 mph 21.9 mph N/A   Clear
2:15 AM 37.4 °F 29.8 °F 12.2 °F 36% 30.38 in 10.0 mi ENE 11.5 mph - N/A   Clear
2:35 AM 37.4 °F 30.8 °F 12.2 °F 36% 30.37 in 10.0 mi East 9.2 mph - N/A   Clear
2:55 AM 35.6 °F 28.6 °F 12.2 °F 38% 30.38 in 10.0 mi ENE 9.2 mph - N/A   Clear
3:15 AM 35.6 °F 28.6 °F 12.2 °F 38% 30.37 in 10.0 mi East 9.2 mph - N/A   Clear
3:35 AM 35.6 °F 29.2 °F 12.2 °F 38% 30.37 in 10.0 mi ENE 8.1 mph - N/A   Clear
3:55 AM 33.8 °F 29.6 °F 12.2 °F 41% 30.37 in 10.0 mi South 4.6 mph - N/A   Clear
4:15 AM 35.6 °F 29.9 °F 10.4 °F 35% 30.37 in 10.0 mi East 6.9 mph - N/A   Clear
4:35 AM 32.0 °F - 10.4 °F 41% 30.37 in 10.0 mi Calm Calm - N/A   Clear
4:55 AM 26.6 °F - 10.4 °F 51% 30.38 in 10.0 mi Calm Calm - N/A   Clear
5:15 AM 32.0 °F 28.7 °F 10.4 °F 41% 30.38 in 10.0 mi ESE 3.5 mph - N/A   Clear
5:35 AM 26.6 °F 22.6 °F 10.4 °F 51% 30.38 in 10.0 mi SE 3.5 mph - N/A   Clear
5:55 AM 28.4 °F 24.6 °F 10.4 °F 47% 30.39 in 10.0 mi South 3.5 mph - N/A   Clear
6:15 AM 26.6 °F - 10.4 °F 51% 30.40 in 10.0 mi Calm Calm - N/A   Clear
6:35 AM 26.6 °F 22.6 °F 10.4 °F 51% 30.41 in 10.0 mi SSE 3.5 mph - N/A   Clear
6:55 AM 30.2 °F 26.7 °F 12.2 °F 47% 30.43 in 10.0 mi NE 3.5 mph - N/A   Clear
7:15 AM 30.2 °F - 14.0 °F 51% 30.43 in 10.0 mi Calm Calm - N/A   Clear
7:35 AM 33.8 °F - 14.0 °F 44% 30.44 in 10.0 mi Calm Calm - N/A   Clear
7:55 AM 37.4 °F 32.1 °F 15.8 °F 41% 30.45 in 10.0 mi ENE 6.9 mph - N/A   Clear
8:15 AM 39.2 °F 31.2 °F 17.6 °F 42% 30.44 in 10.0 mi ENE 13.8 mph - N/A   Clear
8:35 AM 41.0 °F 34.3 °F 15.8 °F 36% 30.45 in 10.0 mi ENE 11.5 mph - N/A   Clear
8:55 AM 44.6 °F 38.8 °F 15.8 °F 31% 30.45 in 10.0 mi ENE 11.5 mph 16.1 mph N/A   Clear
9:15 AM 44.6 °F 38.4 °F 17.6 °F 34% 30.46 in 10.0 mi NE 12.7 mph - N/A   Clear
9:35 AM 46.4 °F 40.7 °F 17.6 °F 32% 30.46 in 10.0 mi NE 12.7 mph - N/A   Clear
9:55 AM 48.2 °F - 15.8 °F 27% 30.46 in 10.0 mi NE 10.4 mph 16.1 mph N/A   Clear
10:15 AM 48.2 °F - 17.6 °F 30% 30.47 in 10.0 mi NE 17.3 mph - N/A   Clear
10:35 AM 50.0 °F - 15.8 °F 26% 30.46 in 10.0 mi ENE 10.4 mph - N/A   Clear
10:55 AM 50.0 °F - 17.6 °F 28% 30.47 in 10.0 mi North 15.0 mph - N/A   Clear
11:15 AM 51.8 °F - 15.8 °F 24% 30.47 in 10.0 mi NE 11.5 mph 19.6 mph N/A   Clear
11:35 AM 51.8 °F - 17.6 °F 26% 30.46 in 10.0 mi NE 15.0 mph 19.6 mph N/A   Clear
11:55 AM 53.6 °F - 17.6 °F 24% 30.46 in 10.0 mi NNE 13.8 mph 18.4 mph N/A   Clear
12:15 PM 55.4 °F - 17.6 °F 23% 30.45 in 10.0 mi NNE 16.1 mph 19.6 mph N/A   Clear
12:35 PM 55.4 °F - 17.6 °F 23% 30.45 in 10.0 mi NNE 17.3 mph 20.7 mph N/A   Clear
12:55 PM 55.4 °F - 17.6 °F 23% 30.45 in 10.0 mi NNE 15.0 mph 21.9 mph N/A   Clear
1:15 PM 55.4 °F - 17.6 °F 23% 30.44 in 10.0 mi NNE 17.3 mph 21.9 mph N/A   Clear
1:35 PM 55.4 °F - 17.6 °F 23% 30.44 in 10.0 mi NNE 11.5 mph 20.7 mph N/A   Clear
1:55 PM 57.2 °F - 15.8 °F 20% 30.43 in 10.0 mi NNE 13.8 mph 20.7 mph N/A   Clear
2:15 PM 57.2 °F - 15.8 °F 20% 30.43 in 10.0 mi NNE 12.7 mph 16.1 mph N/A   Clear
2:35 PM 57.2 °F - 15.8 °F 20% 30.43 in 10.0 mi NNE 16.1 mph 19.6 mph N/A   Clear
2:55 PM 57.2 °F - 15.8 °F 20% 30.43 in 10.0 mi NNE 15.0 mph - N/A   Clear
3:15 PM 55.4 °F - 17.6 °F 23% 30.43 in 10.0 mi NE 13.8 mph - N/A   Clear
3:35 PM 55.4 °F - 17.6 °F 23% 30.42 in 10.0 mi NNE 15.0 mph 21.9 mph N/A   Clear
3:55 PM 55.4 °F - 17.6 °F 23% 30.42 in 10.0 mi NE 17.3 mph 21.9 mph N/A   Clear
4:15 PM 55.4 °F - 17.6 °F 23% 30.42 in 10.0 mi NNE 15.0 mph 24.2 mph N/A   Clear
4:35 PM 55.4 °F - 17.6 °F 23% 30.42 in 10.0 mi NNE 17.3 mph 20.7 mph N/A   Clear
4:55 PM 55.4 °F - 17.6 °F 23% 30.42 in 10.0 mi NNE 16.1 mph 20.7 mph N/A   Clear
5:15 PM 53.6 °F - 17.6 °F 24% 30.42 in 10.0 mi NNE 16.1 mph - N/A   Clear
5:35 PM 53.6 °F - 17.6 °F 24% 30.43 in 10.0 mi NE 12.7 mph - N/A   Clear
5:55 PM 50.0 °F - 17.6 °F 28% 30.43 in 10.0 mi NNE 8.1 mph - N/A   Clear
6:15 PM 48.2 °F - 17.6 °F 30% 30.44 in 10.0 mi NNE 11.5 mph - N/A   Clear
6:35 PM 48.2 °F - 17.6 °F 30% 30.43 in 6.0 mi NNE 6.9 mph - N/A   Clear
6:55 PM 46.4 °F 42.9 °F 17.6 °F 32% 30.44 in 9.0 mi North 6.9 mph - N/A   Clear
7:15 PM 46.4 °F 44.3 °F 17.6 °F 32% 30.44 in 10.0 mi North 4.6 mph - N/A   Clear
7:35 PM 46.4 °F 45.2 °F 17.6 °F 32% 30.45 in 10.0 mi NW 3.5 mph - N/A   Clear
7:55 PM 46.4 °F 45.2 °F 17.6 °F 32% 30.45 in 10.0 mi NW 3.5 mph - N/A   Clear
8:15 PM 46.4 °F 45.2 °F 17.6 °F 32% 30.46 in 10.0 mi WNW 3.5 mph - N/A   Clear
8:35 PM 44.6 °F 43.1 °F 17.6 °F 34% 30.46 in 10.0 mi NNW 3.5 mph - N/A   Clear
8:55 PM 44.6 °F 43.1 °F 15.8 °F 31% 30.46 in 10.0 mi East 3.5 mph - N/A   Clear
9:15 PM 44.6 °F 39.7 °F 15.8 °F 31% 30.46 in 10.0 mi SE 9.2 mph - N/A   Clear
9:35 PM 44.6 °F 40.7 °F 14.0 °F 29% 30.46 in 10.0 mi ESE 6.9 mph - N/A   Clear
9:55 PM 44.6 °F 41.4 °F 14.0 °F 29% 30.46 in 10.0 mi East 5.8 mph - N/A   Clear
10:15 PM 44.6 °F 42.2 °F 12.2 °F 27% 30.46 in 10.0 mi SE 4.6 mph - N/A   Clear
10:35 PM 44.6 °F 43.1 °F 10.4 °F 25% 30.45 in 10.0 mi East 3.5 mph - N/A   Clear
10:55 PM 39.2 °F 35.9 °F 10.4 °F 31% 30.45 in 10.0 mi SSE 4.6 mph - N/A   Clear
11:15 PM 41.0 °F - 5.0 °F 23% 30.45 in 10.0 mi Calm Calm - N/A   Clear
11:35 PM 44.6 °F - -0.4 °F 15% 30.44 in 10.0 mi Calm Calm - N/A   Clear
11:55 PM 42.8 °F 41.1 °F -0.4 °F 16% 30.44 in 10.0 mi SSW 3.5 mph - N/A   Clear